Time;durP1;ratioP1;P1;durP2;ratioP2;P2;SDS_P1;SDS_P2;PMS_P1;PMS_P2;Temp;Humidity;BMP_temperature;BMP_pressure;BME280_temperature;BME280_humidity;BME280_pressure;Samples;Min_cycle;Max_cycle;Signal;HPM_P1;HPM_P2
2022/08/26 00:02:06;;;;;;;15.78;10.95;;;;;;;19.60;100.00;99368.95;1818213;79;20904;-72
2022/08/26 00:04:33;;;;;;;17.98;11.73;;;;;;;19.57;100.00;99370.92;1808588;79;37830;-70
2022/08/26 00:07:01;;;;;;;;;;;;;;;19.55;100.00;99366.38;1811071;79;21478;-70
2022/08/26 00:09:28;;;;;;;15.43;10.18;;;;;;;19.55;100.00;99366.92;1808594;79;21194;-72
2022/08/26 00:11:55;;;;;;;23.02;9.98;;;;;;;19.55;100.00;99361.48;1808387;79;20901;-71
2022/08/26 00:14:22;;;;;;;11.12;9.90;;;;;;;19.55;100.00;99369.11;1776398;80;20964;-71
2022/08/26 00:16:50;;;;;;;17.13;9.33;;;;;;;19.54;100.00;99361.25;1777213;80;21011;-71
2022/08/26 00:19:18;;;;;;;13.60;10.47;;;;;;;19.54;100.00;99361.25;1776977;80;21301;-70
2022/08/26 00:21:46;;;;;;;;;;;;;;;19.54;100.00;99362.61;1779587;80;21407;-71
2022/08/26 00:24:13;;;;;;;17.55;11.35;;;;;;;19.51;100.00;99356.45;1776615;80;20423;-72
2022/08/26 00:26:40;;;;;;;16.52;10.35;;;;;;;19.47;100.00;99357.62;1740875;80;20967;-72
2022/08/26 00:29:06;;;;;;;17.75;11.63;;;;;;;19.44;100.00;99363.14;1777790;80;20932;-70
2022/08/26 00:31:33;;;;;;;15.83;10.72;;;;;;;19.42;100.00;99360.50;1776583;80;20909;-72
2022/08/26 00:34:00;;;;;;;13.88;10.08;;;;;;;19.34;100.00;99359.93;1776776;80;21467;-71
2022/08/26 00:36:27;;;;;;;18.35;11.55;;;;;;;19.33;100.00;99360.50;1776559;80;20928;-71
2022/08/26 00:38:53;;;;;;;17.80;11.40;;;;;;;19.29;100.00;99358.16;1776381;80;20957;-71
2022/08/26 00:41:20;;;;;;;15.83;11.68;;;;;;;19.22;100.00;99359.97;1776751;80;20924;-70
2022/08/26 00:43:47;;;;;;;20.97;11.05;;;;;;;19.16;100.00;99362.61;1776526;80;20885;-71
2022/08/26 00:46:20;;;;;;;20.45;13.05;;;;;;;19.13;100.00;99367.30;1776727;80;21394;-71
2022/08/26 00:48:49;;;;;;;17.77;11.65;;;;;;;19.07;100.00;99359.05;1776870;80;20866;-70
2022/08/26 00:51:22;;;;;;;17.40;11.03;;;;;;;18.99;100.00;99357.11;1776451;80;20926;-71
2022/08/26 00:53:56;;;;;;;18.30;12.28;;;;;;;18.90;100.00;99353.55;1776684;80;20889;-71
2022/08/26 00:56:31;;;;;;;15.25;12.30;;;;;;;18.83;100.00;99352.06;1776572;80;21482;-72
2022/08/26 00:59:02;;;;;;;23.12;12.90;;;;;;;18.78;100.00;99352.20;1776786;80;21846;-71
2022/08/26 01:01:28;;;;;;;17.70;12.00;;;;;;;18.80;100.00;99345.91;1776255;80;21510;-71
2022/08/26 01:03:55;;;;;;;13.90;11.08;;;;;;;18.80;100.00;99339.11;1776718;80;20913;-71
2022/08/26 01:06:23;;;;;;;24.40;12.33;;;;;;;18.79;100.00;99347.56;1776827;80;20929;-70
2022/08/26 01:08:51;;;;;;;15.10;11.22;;;;;;;18.76;100.00;99341.40;1776823;80;20972;-71
2022/08/26 01:11:18;;;;;;;15.72;10.50;;;;;;;18.71;100.00;99337.44;1776915;80;21325;-71
2022/08/26 01:13:46;;;;;;;17.23;11.55;;;;;;;18.73;100.00;99333.28;1782792;80;21028;-71
2022/08/26 01:16:15;;;;;;;16.40;12.13;;;;;;;18.68;100.00;99335.34;1784999;80;20874;-71
2022/08/26 01:18:44;;;;;;;14.07;11.08;;;;;;;18.62;100.00;99340.92;1784717;80;20941;-71
2022/08/26 01:21:49;;;;;;;19.63;12.33;;;;;;;18.55;100.00;99344.64;1784916;80;20960;-71
2022/08/26 01:24:15;;;;;;;17.07;12.15;;;;;;;18.49;100.00;99345.87;1784777;80;21251;-71
2022/08/26 01:26:43;;;;;;;19.40;12.25;;;;;;;18.44;100.00;99339.21;1784500;80;20929;-70
2022/08/26 01:29:16;;;;;;;23.20;13.65;;;;;;;18.48;100.00;99335.33;1784882;79;21013;-73
2022/08/26 01:31:47;;;;;;;24.00;12.45;;;;;;;18.43;100.00;99335.70;1784775;80;20913;-72
2022/08/26 01:34:33;;;;;;;24.67;14.75;;;;;;;18.40;100.00;99333.61;1784742;79;21431;-71
2022/08/26 01:37:04;;;;;;;25.60;15.83;;;;;;;18.38;100.00;99332.31;1784695;80;21216;-70
2022/08/26 01:39:31;;;;;;;25.95;16.25;;;;;;;18.39;100.00;99332.55;1784452;80;21474;-71
2022/08/26 01:42:00;;;;;;;31.37;17.30;;;;;;;18.27;100.00;99330.39;1768118;80;21605;-71
2022/08/26 01:44:32;;;;;;;25.20;17.85;;;;;;;18.19;100.00;99326.52;1790053;79;22082;-70
2022/08/26 01:46:59;;;;;;;32.80;17.80;;;;;;;18.07;100.00;99326.27;1786664;79;20857;-71
2022/08/26 01:49:26;;;;;;;32.70;17.57;;;;;;;18.00;100.00;99314.48;1785078;79;21083;-71
2022/08/26 01:51:55;;;;;;;34.03;20.17;;;;;;;17.94;100.00;99314.92;1784696;80;20965;-71
2022/08/26 01:54:21;;;;;;;;;;;;;;;17.89;100.00;99313.13;1787935;79;20945;-70
2022/08/26 01:56:48;;;;;;;31.05;19.00;;;;;;;17.84;100.00;99316.53;1785117;80;20078;-70
2022/08/26 01:59:15;;;;;;;39.83;22.35;;;;;;;17.77;100.00;99308.78;1785023;80;20851;-70
2022/08/26 02:01:42;;;;;;;36.35;21.35;;;;;;;17.69;100.00;99315.74;1785455;80;21129;-70
2022/08/26 02:04:20;;;;;;;40.15;23.87;;;;;;;17.65;100.00;99317.45;1784789;80;20920;-70
2022/08/26 02:06:48;;;;;;;40.03;23.70;;;;;;;17.63;100.00;99317.52;1785147;80;21526;-71
2022/08/26 02:09:16;;;;;;;39.78;23.15;;;;;;;17.69;100.00;99320.38;1785066;80;20882;-70
2022/08/26 02:11:43;;;;;;;38.17;22.20;;;;;;;17.74;100.00;99322.97;1785291;80;20949;-70
2022/08/26 02:14:17;;;;;;;34.43;22.07;;;;;;;17.76;100.00;99314.77;1777626;80;21299;-71
2022/08/26 02:16:46;;;;;;;31.23;19.20;;;;;;;17.81;100.00;99317.95;1776709;80;20873;-71
2022/08/26 02:19:16;;;;;;;34.23;21.77;;;;;;;17.86;100.00;99315.64;1776880;80;20980;-70
2022/08/26 02:21:45;;;;;;;38.38;23.38;;;;;;;17.87;100.00;99312.63;1776875;80;20986;-71
2022/08/26 02:24:16;;;;;;;39.00;22.40;;;;;;;17.87;100.00;99312.63;1776959;80;21498;-72
2022/08/26 02:26:43;;;;;;;35.10;22.50;;;;;;;17.83;100.00;99309.48;1776754;80;21297;-70
2022/08/26 02:29:22;;;;;;;44.67;24.93;;;;;;;17.83;100.00;99310.28;1732671;80;20904;-71
2022/08/26 02:31:50;;;;;;;54.50;29.67;;;;;;;17.84;100.00;99309.75;1782949;80;21545;-71
2022/08/26 02:34:24;;;;;;;55.92;30.43;;;;;;;17.81;100.00;99308.45;1777027;80;20877;-71
2022/08/26 02:36:51;;;;;;;54.77;28.67;;;;;;;17.81;100.00;99304.91;1777003;80;20937;-71
2022/08/26 02:39:18;;;;;;;60.20;29.90;;;;;;;17.76;100.00;99301.20;1776734;80;21188;-70
2022/08/26 02:41:45;;;;;;;53.30;28.52;;;;;;;17.82;100.00;99306.53;1776936;80;20862;-71
2022/08/26 02:44:12;;;;;;;52.20;28.90;;;;;;;17.86;100.00;99302.07;1777156;80;20952;-71
2022/08/26 02:46:39;;;;;;;47.33;24.80;;;;;;;17.87;100.00;99308.56;1777096;80;20916;-71
2022/08/26 02:49:07;;;;;;;40.05;22.82;;;;;;;17.92;100.00;99309.00;1777238;80;26563;-71
2022/08/26 02:51:34;;;;;;;37.53;20.87;;;;;;;18.02;100.00;99316.09;1777004;80;21229;-71
2022/08/26 02:54:01;;;;;;;33.13;19.73;;;;;;;18.07;100.00;99315.41;1776885;80;20976;-72
2022/08/26 02:56:28;;;;;;;33.25;20.40;;;;;;;18.12;100.00;99317.20;1776977;80;20889;-71
2022/08/26 02:58:55;;;;;;;33.63;19.63;;;;;;;18.16;100.00;99319.55;1777228;80;20893;-71
2022/08/26 03:01:31;;;;;;;40.20;22.37;;;;;;;18.20;100.00;99317.80;1776960;80;20925;-74
2022/08/26 03:03:59;;;;;;;39.08;21.93;;;;;;;18.17;100.00;99319.23;1776802;80;21233;-71
2022/08/26 03:06:25;;;;;;;34.50;21.42;;;;;;;18.17;100.00;99318.43;1777244;80;20921;-70
2022/08/26 03:08:52;;;;;;;35.17;21.02;;;;;;;18.11;100.00;99317.77;1776940;80;20995;-71
2022/08/26 03:11:19;;;;;;;34.78;21.23;;;;;;;18.09;100.00;99326.77;1776798;80;20869;-71
2022/08/26 03:13:46;;;;;;;37.73;21.30;;;;;;;18.09;100.00;99321.34;1768378;80;20870;-71
2022/08/26 03:16:13;;;;;;;43.63;21.12;;;;;;;18.13;100.00;99318.27;1765400;81;21294;-71
2022/08/26 03:18:41;;;;;;;42.83;23.90;;;;;;;18.12;100.00;99326.14;1765814;81;20974;-72
2022/08/26 03:21:12;;;;;;;43.77;24.47;;;;;;;18.11;100.00;99321.04;1765714;81;20906;-72
2022/08/26 03:23:40;;;;;;;53.78;27.42;;;;;;;18.08;100.00;99321.64;1765445;80;20898;-72
2022/08/26 03:26:07;;;;;;;52.20;25.40;;;;;;;18.07;100.00;99319.48;1765867;81;20958;-72
2022/08/26 03:28:35;;;;;;;48.30;24.65;;;;;;;18.08;100.00;99318.39;1765244;81;21231;-71
2022/08/26 03:31:02;;;;;;;41.08;22.73;;;;;;;18.11;100.00;99316.97;1765623;81;20890;-72
2022/08/26 03:33:29;;;;;;;41.25;21.20;;;;;;;18.14;100.00;99316.34;1765449;81;21423;-71
2022/08/26 03:35:55;;;;;;;41.15;20.57;;;;;;;18.10;100.00;99321.57;1765358;81;20890;-71
2022/08/26 03:38:24;;;;;;;44.35;22.45;;;;;;;18.11;100.00;99317.77;1765415;81;20980;-71
2022/08/26 03:40:51;;;;;;;;;;;;;;;18.16;100.00;99323.06;1768254;81;21819;-72
2022/08/26 03:43:18;;;;;;;37.70;23.07;;;;;;;18.18;100.00;99320.84;1765679;81;20105;-71
2022/08/26 03:45:46;;;;;;;43.17;24.67;;;;;;;18.27;100.00;99324.96;1765654;81;21457;-72
2022/08/26 03:48:13;;;;;;;40.38;23.52;;;;;;;18.37;100.00;99319.30;1765450;81;20945;-72
2022/08/26 03:50:40;;;;;;;40.58;21.70;;;;;;;18.45;100.00;99320.45;1765498;81;21016;-71
2022/08/26 03:53:07;;;;;;;39.40;21.27;;;;;;;18.47;100.00;99319.59;1739252;80;21462;-71
2022/08/26 03:55:33;;;;;;;41.98;24.07;;;;;;;18.49;100.00;99321.41;1784610;80;20952;-70
2022/08/26 03:58:00;;;;;;;42.27;23.05;;;;;;;18.51;100.00;99313.75;1776302;80;20927;-71
2022/08/26 04:00:27;;;;;;;46.55;24.15;;;;;;;18.52;100.00;99315.37;1766137;81;20921;-71
2022/08/26 04:02:54;;;;;;;69.42;26.15;;;;;;;18.55;100.00;99314.74;1765462;81;20965;-72
2022/08/26 04:05:22;;;;;;;47.08;23.92;;;;;;;18.56;100.00;99308.18;1765161;81;21128;-71
2022/08/26 04:07:51;;;;;;;41.42;21.60;;;;;;;18.63;100.00;99313.17;1765308;81;20980;-71
2022/08/26 04:10:20;;;;;;;38.25;18.98;;;;;;;18.66;100.00;99306.31;1765584;81;21479;-73
2022/08/26 04:12:47;;;;;;;29.77;17.52;;;;;;;18.73;100.00;99306.66;1780316;79;20921;-70
2022/08/26 04:15:15;;;;;;;26.37;16.90;;;;;;;18.76;100.00;99305.49;1808844;79;20918;-71
2022/08/26 04:17:42;;;;;;;28.47;14.90;;;;;;;18.82;100.00;99307.53;1808618;79;21236;-71
2022/08/26 04:20:12;;;;;;;23.45;14.90;;;;;;;18.85;100.00;99309.05;1808758;79;20858;-70
2022/08/26 04:22:41;;;;;;;30.23;15.78;;;;;;;18.87;100.00;99299.23;1808637;79;20873;-70
2022/08/26 04:25:09;;;;;;;24.12;15.23;;;;;;;18.97;100.00;99308.45;1808349;79;20952;-69
2022/08/26 04:27:35;;;;;;;21.90;13.57;;;;;;;19.10;100.00;99304.57;1809048;79;21395;-72
2022/08/26 04:30:05;;;;;;;19.05;13.58;;;;;;;19.22;100.00;99307.48;1808668;79;21901;-69
2022/08/26 04:32:31;;;;;;;14.33;12.05;;;;;;;19.31;100.00;99305.58;1808639;79;20917;-73
2022/08/26 04:34:59;;;;;;;26.10;12.95;;;;;;;19.47;100.00;99301.83;1808792;79;20826;-71
2022/08/26 04:37:27;;;;;;;16.55;11.57;;;;;;;19.61;100.00;99304.41;1808979;79;21432;-68
2022/08/26 04:39:53;;;;;;;16.27;12.13;;;;;;;19.76;100.00;99308.60;1808741;79;20977;-69
2022/08/26 04:42:21;;;;;;;14.00;11.83;;;;;;;19.89;100.00;99298.91;1808876;79;21252;-70
2022/08/26 04:44:49;;;;;;;16.17;12.50;;;;;;;20.07;100.00;99305.14;1809210;79;20901;-70
2022/08/26 04:47:15;;;;;;;18.57;11.68;;;;;;;20.28;100.00;99307.17;1808957;79;21111;-69
2022/08/26 04:49:42;;;;;;;19.70;12.13;;;;;;;20.72;100.00;99306.50;1809071;79;20965;-70
2022/08/26 04:52:10;;;;;;;17.35;12.65;;;;;;;20.72;100.00;99306.50;1809310;79;21470;-70
2022/08/26 04:54:37;;;;;;;;;;;;;;;20.92;100.00;99312.61;1812132;79;21168;-69
2022/08/26 04:57:05;;;;;;;20.92;12.40;;;;;;;21.08;100.00;99308.73;1809503;79;20094;-72
2022/08/26 04:59:32;;;;;;;19.70;12.18;;;;;;;21.22;100.00;99311.81;1809404;79;20873;-69
2022/08/26 05:02:00;;;;;;;18.70;11.90;;;;;;;21.45;100.00;99314.48;1809411;79;20850;-69
2022/08/26 05:04:27;;;;;;;19.90;11.20;;;;;;;21.66;100.00;99320.53;1809102;79;21459;-71
2022/08/26 05:06:54;;;;;;;14.83;11.35;;;;;;;21.97;100.00;99322.25;1809545;79;21240;-70
2022/08/26 05:09:21;;;;;;;18.77;10.70;;;;;;;22.27;98.51;99320.81;1809279;79;20965;-70
2022/08/26 05:11:48;;;;;;;19.65;11.70;;;;;;;22.36;95.26;99328.33;1809144;79;21432;-69
2022/08/26 05:14:15;;;;;;;20.77;11.65;;;;;;;22.53;93.57;99338.86;1809219;79;20998;-71
2022/08/26 05:16:42;;;;;;;18.35;11.70;;;;;;;22.63;91.53;99333.74;1809102;79;20917;-68
2022/08/26 05:19:10;;;;;;;18.92;11.33;;;;;;;22.75;88.96;99337.07;1808916;79;21535;-69
2022/08/26 05:21:37;;;;;;;24.27;12.07;;;;;;;22.96;87.19;99339.72;1808857;79;21401;-70
2022/08/26 05:24:05;;;;;;;14.40;10.68;;;;;;;23.09;85.65;99344.66;1808986;79;26975;-70
2022/08/26 05:26:32;;;;;;;19.07;12.37;;;;;;;23.20;81.90;99340.33;1809134;79;20969;-72
2022/08/26 05:28:59;;;;;;;16.63;11.43;;;;;;;23.21;81.84;99336.44;1809159;79;20869;-70
2022/08/26 05:31:30;;;;;;;17.02;11.48;;;;;;;23.32;79.57;99329.36;1808955;79;21803;-71
2022/08/26 05:33:57;;;;;;;15.78;10.55;;;;;;;23.26;79.31;99332.09;1808994;79;20905;-71
2022/08/26 05:36:27;;;;;;;18.90;12.10;;;;;;;23.29;77.95;99323.18;1809209;79;20893;-69
2022/08/26 05:38:55;;;;;;;16.27;11.55;;;;;;;23.35;77.89;99329.23;1809060;79;21487;-72
2022/08/26 05:41:27;;;;;;;16.10;10.40;;;;;;;23.48;76.85;99317.11;1809241;79;20929;-72
2022/08/26 05:43:57;;;;;;;25.45;12.37;;;;;;;23.59;74.95;99324.30;1809070;79;21323;-70
2022/08/26 05:46:25;;;;;;;22.75;11.10;;;;;;;23.71;75.28;99323.44;1808849;79;20972;-70
2022/08/26 05:48:54;;;;;;;19.57;11.57;;;;;;;24.01;71.80;99319.84;1808592;79;20898;-69
2022/08/26 05:51:20;;;;;;;23.42;12.35;;;;;;;24.08;70.97;99315.92;1808904;79;20921;-72
2022/08/26 05:53:47;;;;;;;22.75;12.37;;;;;;;24.35;70.54;99317.04;1808904;79;20909;-71
2022/08/26 05:56:14;;;;;;;19.80;12.58;;;;;;;24.54;67.81;99316.36;1808759;79;21146;-71
2022/08/26 05:58:41;;;;;;;;;;;;;;;24.66;66.15;99322.93;1811610;79;20921;-71
2022/08/26 06:01:15;;;;;;;21.90;12.28;;;;;;;24.79;64.93;99316.19;1808906;79;20078;-71
2022/08/26 06:03:45;;;;;;;20.43;12.23;;;;;;;24.73;64.01;99321.16;1808916;79;20921;-69
2022/08/26 06:06:15;;;;;;;18.67;12.20;;;;;;;24.91;64.37;99321.58;1808756;79;21474;-70
2022/08/26 06:08:42;;;;;;;20.82;12.70;;;;;;;25.05;62.55;99317.02;1809108;79;21768;-71
2022/08/26 06:11:11;;;;;;;19.35;11.45;;;;;;;25.18;61.63;99316.36;1808846;79;20830;-74
2022/08/26 06:13:38;;;;;;;19.10;12.23;;;;;;;25.36;60.32;99314.03;1786515;79;20861;-71
2022/08/26 06:16:10;;;;;;;23.87;11.97;;;;;;;25.41;59.85;99319.24;1776988;80;20912;-74
2022/08/26 06:18:39;;;;;;;17.67;12.00;;;;;;;25.52;58.92;99317.51;1777054;80;20959;-71
2022/08/26 06:21:29;;;;;;;15.95;12.15;;;;;;;25.24;59.77;99312.20;1776930;80;21864;-71
2022/08/26 06:26:55;;;;;;;16.07;12.10;;;;;;;25.28;58.85;99311.68;1777066;80;21409;-71
2022/08/26 06:29:24;;;;;;;15.65;11.48;;;;;;;25.56;58.53;99321.14;1777564;80;20944;-73
2022/08/26 06:31:53;;;;;;;21.02;12.25;;;;;;;25.85;57.28;99316.24;1776870;80;20956;-71
2022/08/26 06:34:20;;;;;;;20.85;12.35;;;;;;;25.99;56.71;99317.12;1777147;80;21839;-70
2022/08/26 06:36:48;;;;;;;22.90;11.73;;;;;;;26.26;55.88;99313.34;1777319;80;20825;-72
2022/08/26 06:39:16;;;;;;;;;;;;;;;26.28;55.02;99315.70;1779553;80;21123;-71
2022/08/26 06:41:43;;;;;;;23.35;12.35;;;;;;;26.19;54.70;99319.27;1740246;82;20453;-73
2022/08/26 06:44:13;;;;;;;20.57;11.35;;;;;;;26.29;55.66;99318.11;1715226;83;20953;-72
2022/08/26 06:46:41;;;;;;;23.65;12.53;;;;;;;26.37;54.94;99323.16;1708724;83;21245;-71
2022/08/26 06:49:09;;;;;;;19.50;11.93;;;;;;;26.53;54.87;99323.05;1716579;83;20885;-71
2022/08/26 06:51:38;;;;;;;24.40;12.25;;;;;;;26.84;54.50;99321.23;1709140;84;21442;-71
2022/08/26 06:54:08;;;;;;;20.10;12.37;;;;;;;26.76;53.88;99327.79;1739727;82;20865;-73
2022/08/26 06:56:41;;;;;;;20.65;11.60;;;;;;;26.69;54.73;99318.23;1716803;83;20933;-72
2022/08/26 06:59:09;;;;;;;20.23;12.40;;;;;;;26.87;54.24;99315.77;1709082;84;21246;-71
2022/08/26 07:01:39;;;;;;;27.52;11.95;;;;;;;27.09;53.36;99318.27;1740223;82;20878;-71
2022/08/26 07:04:06;;;;;;;19.25;11.75;;;;;;;27.27;53.03;99313.66;1716482;83;21456;-72
2022/08/26 07:06:36;;;;;;;19.92;12.00;;;;;;;27.50;52.08;99308.84;1709406;84;20866;-70
2022/08/26 07:09:04;;;;;;;22.42;11.53;;;;;;;27.63;51.08;99311.37;1716472;83;20885;-71
2022/08/26 07:11:33;;;;;;;17.12;11.85;;;;;;;27.67;51.16;99314.98;1742539;82;20881;-73
2022/08/26 07:13:59;;;;;;;16.10;11.47;;;;;;;27.85;51.50;99310.48;1740487;82;20865;-71
2022/08/26 07:16:27;;;;;;;22.50;11.78;;;;;;;28.13;50.14;99314.77;1777220;80;20913;-70
2022/08/26 07:18:53;;;;;;;17.33;10.83;;;;;;;28.23;50.10;99304.42;1777597;80;20927;-72
2022/08/26 07:21:20;;;;;;;16.83;11.63;;;;;;;28.57;47.98;99307.14;1777181;80;20931;-70
2022/08/26 07:23:47;;;;;;;19.30;11.70;;;;;;;28.49;47.34;99304.09;1777399;80;21057;-71
2022/08/26 07:26:20;;;;;;;23.38;11.03;;;;;;;28.35;48.20;99299.22;1777110;80;21406;-71
2022/08/26 07:28:49;;;;;;;25.32;10.50;;;;;;;28.43;47.08;99302.23;1777284;80;20916;-72
2022/08/26 07:31:16;;;;;;;27.17;11.20;;;;;;;28.50;46.97;99306.48;1777023;80;21466;-70
2022/08/26 07:33:43;;;;;;;24.45;11.65;;;;;;;28.59;46.77;99306.15;1777472;80;20927;-71
2022/08/26 07:36:10;;;;;;;30.30;11.88;;;;;;;28.82;46.36;99304.58;1777114;80;21474;-70
2022/08/26 07:38:38;;;;;;;26.27;11.33;;;;;;;28.82;45.62;99301.81;1777306;80;20872;-70
2022/08/26 07:41:05;;;;;;;30.88;11.08;;;;;;;28.93;45.70;99297.15;1777154;80;21495;-69
2022/08/26 07:43:34;;;;;;;23.92;10.82;;;;;;;29.08;45.43;99292.58;1777447;80;20881;-70
2022/08/26 07:46:01;;;;;;;22.48;10.30;;;;;;;29.17;45.62;99291.63;1776946;80;20935;-70
2022/08/26 07:48:28;;;;;;;27.02;12.00;;;;;;;29.32;44.47;99284.80;1777403;80;21068;-68
2022/08/26 07:50:55;;;;;;;27.93;10.43;;;;;;;29.08;44.15;99288.43;1777066;80;21406;-70
2022/08/26 07:53:21;;;;;;;20.50;10.38;;;;;;;29.17;44.69;99279.78;1777668;80;20907;-70
2022/08/26 07:55:48;;;;;;;27.53;10.40;;;;;;;29.34;43.79;99281.84;1777256;80;20856;-69
2022/08/26 07:58:15;;;;;;;20.82;9.60;;;;;;;29.47;44.21;99287.27;1777329;80;20912;-73
2022/08/26 08:00:41;;;;;;;24.60;9.73;;;;;;;29.68;42.30;99283.81;1777267;80;21851;-71
2022/08/26 08:03:09;;;;;;;21.70;10.40;;;;;;;29.77;41.72;99278.53;1777423;80;20888;-71
2022/08/26 08:05:35;;;;;;;19.98;10.28;;;;;;;29.75;42.08;99279.50;1777136;80;20880;-70
2022/08/26 08:08:05;;;;;;;27.82;11.22;;;;;;;30.01;42.41;99270.89;1776976;80;20931;-68
2022/08/26 08:10:33;;;;;;;20.48;10.45;;;;;;;30.08;41.80;99275.63;1777026;80;20864;-72
2022/08/26 08:13:01;;;;;;;28.87;10.35;;;;;;;30.05;41.53;99277.80;1791090;79;21183;-71
2022/08/26 08:15:29;;;;;;;24.82;10.32;;;;;;;30.07;41.31;99283.73;1808926;79;21438;-69
2022/08/26 08:17:57;;;;;;;21.35;8.88;;;;;;;29.96;41.78;99274.02;1809255;79;20866;-71
2022/08/26 08:20:23;;;;;;;25.17;7.97;;;;;;;29.99;40.76;99282.94;1809091;79;21364;-70
2022/08/26 08:22:50;;;;;;;21.48;6.67;;;;;;;30.25;38.63;99282.41;1809320;79;20920;-68
2022/08/26 08:25:17;;;;;;;22.85;6.62;;;;;;;30.46;37.57;99285.20;1809175;79;21195;-69
2022/08/26 08:27:44;;;;;;;19.95;7.08;;;;;;;30.36;36.25;99288.77;1809275;79;20870;-70
2022/08/26 08:30:12;;;;;;;22.70;7.05;;;;;;;30.29;37.13;99274.91;1808905;79;20862;-69
2022/08/26 08:32:38;;;;;;;13.88;5.92;;;;;;;30.49;36.26;99285.02;1809056;79;21423;-69
2022/08/26 08:35:07;;;;;;;16.77;6.20;;;;;;;30.53;35.43;99283.05;1809309;79;20834;-69
2022/08/26 08:37:35;;;;;;;15.32;5.58;;;;;;;30.73;35.17;99282.05;1808997;79;21166;-70
2022/08/26 08:40:03;;;;;;;19.85;5.60;;;;;;;30.97;34.40;99288.19;1809013;79;20877;-70
2022/08/26 08:42:48;;;;;;;21.80;6.37;;;;;;;31.04;32.66;99281.85;1809014;79;20894;-69
2022/08/26 08:45:37;;;;;;;26.70;6.35;;;;;;;30.94;33.16;99288.18;1808105;79;21419;-70
2022/08/26 08:48:12;;;;;;;25.50;6.00;;;;;;;30.90;32.96;99287.41;1808838;79;20889;-72
2022/08/26 08:50:46;;;;;;;14.25;5.55;;;;;;;30.89;33.02;99280.27;1809159;79;21082;-69
2022/08/26 08:53:36;;;;;;;16.65;5.30;;;;;;;31.01;32.68;99282.63;1807750;79;21443;-71
2022/08/26 08:56:16;;;;;;;18.07;5.75;;;;;;;30.98;32.25;99273.13;1773019;80;20972;-70
2022/08/26 08:59:15;;;;;;;29.30;5.87;;;;;;;31.02;32.14;99279.28;1769395;79;21037;-72
2022/08/26 09:02:15;;;;;;;23.38;6.25;;;;;;;31.13;32.30;99282.81;1756018;80;20936;-68
2022/08/26 09:05:11;;;;;;;24.60;5.80;;;;;;;31.36;31.91;99269.29;1777286;80;21215;-74
2022/08/26 09:07:51;;;;;;;12.15;5.30;;;;;;;31.62;31.51;99278.33;1784357;80;28921;-73
2022/08/26 09:10:40;;;;;;;17.85;5.70;;;;;;;31.64;31.97;99280.10;1777378;80;21431;-69
2022/08/26 09:13:13;;;;;;;20.10;4.92;;;;;;;31.66;31.21;99270.78;1753900;80;21507;-69
2022/08/26 09:16:07;;;;;;;25.08;5.37;;;;;;;31.57;31.00;99271.20;1744823;81;20928;-70
2022/08/26 09:19:04;;;;;;;24.98;5.80;;;;;;;31.57;29.87;99275.97;1755137;81;21189;-70
2022/08/26 09:21:30;;;;;;;19.65;5.53;;;;;;;31.60;30.70;99275.97;1749165;81;23140;-69
2022/08/26 09:23:57;;;;;;;16.50;5.47;;;;;;;31.72;29.52;99278.08;1747874;81;20992;-69
2022/08/26 09:26:41;;;;;;;26.50;5.12;;;;;;;31.82;29.33;99270.30;1748880;81;20884;-70
2022/08/26 09:29:19;;;;;;;15.00;4.42;;;;;;;31.91;28.45;99280.97;1752886;81;21537;-72
2022/08/26 09:31:46;;;;;;;19.20;4.40;;;;;;;31.96;28.12;99268.08;1762100;80;21260;-71
2022/08/26 09:34:25;;;;;;;12.85;4.40;;;;;;;32.02;27.82;99279.75;1719335;82;21423;-68
2022/08/26 09:36:57;;;;;;;15.58;4.33;;;;;;;31.94;27.57;99276.80;1716681;83;20859;-70
2022/08/26 09:39:35;;;;;;;39.88;6.15;;;;;;;31.88;26.82;99257.59;1716758;83;20902;-72
2022/08/26 09:42:12;;;;;;;20.05;4.53;;;;;;;31.76;26.68;99263.00;1716776;83;21429;-69
2022/08/26 09:44:58;;;;;;;19.52;4.60;;;;;;;31.61;27.51;99260.11;1716726;83;21232;-70
2022/08/26 09:47:46;;;;;;;24.70;5.58;;;;;;;31.74;27.33;99273.70;1716525;83;21416;-72
2022/08/26 09:50:55;;;;;;;24.47;5.78;;;;;;;31.77;26.86;99259.02;1717237;83;20927;-68
2022/08/26 09:53:35;;;;;;;19.30;4.30;;;;;;;31.78;27.49;99259.84;1716757;83;20938;-69
2022/08/26 09:56:28;;;;;;;12.98;4.37;;;;;;;31.81;26.90;99264.57;1716951;83;20934;-69
2022/08/26 09:58:56;;;;;;;11.22;4.50;;;;;;;31.86;26.24;99255.81;1716584;83;21853;-70
2022/08/26 10:01:34;;;;;;;21.80;5.25;;;;;;;32.06;27.17;99251.17;1716903;83;20891;-70
2022/08/26 10:04:14;;;;;;;60.65;8.43;;;;;;;32.32;27.32;99258.14;1716618;83;20951;-71
2022/08/26 10:06:58;;;;;;;20.15;4.75;;;;;;;32.35;26.89;99255.32;1716811;83;20910;-70
2022/08/26 10:09:25;;;;;;;15.75;3.95;;;;;;;32.19;26.80;99266.14;1715628;83;20867;-70
2022/08/26 10:11:57;;;;;;;15.05;4.05;;;;;;;32.10;25.96;99258.28;1709116;84;20842;-69
2022/08/26 10:14:32;;;;;;;23.20;4.10;;;;;;;32.03;25.59;99261.89;1716671;83;20944;-70
2022/08/26 10:17:12;;;;;;;19.57;3.70;;;;;;;32.19;26.26;99264.18;1710779;83;20997;-70
2022/08/26 10:19:51;;;;;;;14.00;3.67;;;;;;;32.51;25.67;99263.75;1710560;84;20936;-68
2022/08/26 10:22:44;;;;;;;16.37;3.50;;;;;;;32.45;25.09;99266.16;1710725;84;20952;-70
2022/08/26 10:25:15;;;;;;;12.30;3.80;;;;;;;32.34;24.99;99264.86;1739998;82;21201;-69
2022/08/26 10:28:08;;;;;;;14.28;3.42;;;;;;;32.34;24.67;99257.11;1777427;80;20877;-70
2022/08/26 10:30:40;;;;;;;23.32;4.12;;;;;;;32.43;25.23;99264.38;1777182;80;20901;-70
2022/08/26 10:33:09;;;;;;;18.80;4.37;;;;;;;32.57;24.98;99264.91;1710697;84;20898;-69
2022/08/26 10:35:40;;;;;;;14.95;3.52;;;;;;;32.57;25.13;99266.30;1777118;80;20916;-68
2022/08/26 10:38:15;;;;;;;11.12;2.85;;;;;;;32.60;24.28;99259.91;1777496;80;21099;-67
2022/08/26 10:41:10;;;;;;;15.13;4.60;;;;;;;32.43;23.40;99262.39;1710507;84;20938;-67
2022/08/26 10:43:52;;;;;;;20.35;4.58;;;;;;;32.25;23.70;99268.09;1777344;80;20885;-68
2022/08/26 10:46:23;;;;;;;13.38;4.42;;;;;;;32.01;24.79;99253.17;1773306;80;20881;-69
2022/08/26 10:48:58;;;;;;;12.45;3.95;;;;;;;32.07;25.41;99249.96;1710645;84;21543;-70
2022/08/26 10:51:34;;;;;;;12.88;3.17;;;;;;;32.20;25.17;99250.48;1777195;80;21420;-70
2022/08/26 10:54:05;;;;;;;16.82;3.83;;;;;;;32.44;23.96;99257.65;1709645;84;20969;-68
2022/08/26 10:56:47;;;;;;;14.38;3.30;;;;;;;32.41;23.83;99251.50;1777065;80;20873;-69
2022/08/26 10:59:35;;;;;;;13.35;3.47;;;;;;;32.33;23.37;99247.99;1776757;80;20936;-69
2022/08/26 11:02:28;;;;;;;12.13;3.87;;;;;;;32.36;23.67;99245.00;1710762;84;20906;-69
2022/08/26 11:05:05;;;;;;;14.70;3.17;;;;;;;32.22;23.77;99253.64;1777039;80;22818;-68
2022/08/26 11:07:51;;;;;;;9.20;3.30;;;;;;;32.13;23.79;99243.58;1710725;84;21392;-68
2022/08/26 11:10:22;;;;;;;11.55;3.02;;;;;;;32.32;23.88;99256.15;1776959;80;20873;-71
2022/08/26 11:12:57;;;;;;;11.95;3.70;;;;;;;32.28;22.47;99245.66;1788780;79;21395;-69
2022/08/26 11:15:30;;;;;;;8.35;3.45;;;;;;;32.09;22.97;99246.19;1809149;79;20920;-68
2022/08/26 11:18:04;;;;;;;9.90;3.27;;;;;;;32.00;23.64;99234.17;1809201;79;21129;-72
2022/08/26 11:20:45;;;;;;;10.50;3.50;;;;;;;32.02;23.65;99237.30;1808987;79;20841;-70
2022/08/26 11:23:26;;;;;;;13.00;3.27;;;;;;;31.92;24.30;99239.52;1805385;79;20881;-72
2022/08/26 11:26:13;;;;;;;5.08;2.62;;;;;;;32.00;24.08;99234.17;1808976;79;20834;-68
2022/08/26 11:28:46;;;;;;;9.18;3.42;;;;;;;32.08;23.70;99246.80;1809324;79;20870;-70
2022/08/26 11:31:29;;;;;;;11.08;3.77;;;;;;;32.22;23.71;99241.75;1808921;79;21881;-68
2022/08/26 11:34:05;;;;;;;11.50;3.33;;;;;;;32.19;23.87;99239.19;1809161;79;20834;-68
2022/08/26 11:36:49;;;;;;;9.00;3.47;;;;;;;32.13;24.28;99244.97;1808901;79;20881;-68
2022/08/26 11:39:33;;;;;;;9.08;3.70;;;;;;;31.94;24.16;99238.52;1809561;79;20861;-69
2022/08/26 11:42:22;;;;;;;10.00;3.67;;;;;;;31.88;24.60;99237.39;1808930;79;20881;-69